sensor_id;sensor_type;location;lat;lon;timestamp;P1;durP1;ratioP1;P2;durP2;ratioP2
23990;SDS011;12205;50.600;4.608;2023-04-24T00:01:03;11.48;;;3.72;;
23990;SDS011;12205;50.600;4.608;2023-04-24T00:03:32;14.60;;;4.20;;
23990;SDS011;12205;50.600;4.608;2023-04-24T00:05:59;17.35;;;4.50;;
23990;SDS011;12205;50.600;4.608;2023-04-24T00:08:27;25.67;;;6.28;;
23990;SDS011;12205;50.600;4.608;2023-04-24T00:10:56;9.75;;;3.03;;
23990;SDS011;12205;50.600;4.608;2023-04-24T00:13:23;15.57;;;3.70;;
23990;SDS011;12205;50.600;4.608;2023-04-24T00:15:49;16.55;;;4.32;;
23990;SDS011;12205;50.600;4.608;2023-04-24T00:18:17;16.90;;;4.47;;
23990;SDS011;12205;50.600;4.608;2023-04-24T00:20:43;14.30;;;4.18;;
23990;SDS011;12205;50.600;4.608;2023-04-24T00:23:11;25.52;;;4.70;;
23990;SDS011;12205;50.600;4.608;2023-04-24T00:25:38;15.63;;;4.68;;
23990;SDS011;12205;50.600;4.608;2023-04-24T00:28:07;15.07;;;4.00;;
23990;SDS011;12205;50.600;4.608;2023-04-24T00:30:34;14.18;;;4.20;;
23990;SDS011;12205;50.600;4.608;2023-04-24T00:33:01;12.68;;;3.58;;
23990;SDS011;12205;50.600;4.608;2023-04-24T00:35:28;15.25;;;4.20;;
23990;SDS011;12205;50.600;4.608;2023-04-24T00:37:55;17.73;;;4.53;;
23990;SDS011;12205;50.600;4.608;2023-04-24T00:40:22;12.07;;;3.80;;
23990;SDS011;12205;50.600;4.608;2023-04-24T00:42:49;9.45;;;3.22;;
23990;SDS011;12205;50.600;4.608;2023-04-24T00:45:17;16.30;;;3.67;;
23990;SDS011;12205;50.600;4.608;2023-04-24T00:47:44;15.57;;;4.10;;
23990;SDS011;12205;50.600;4.608;2023-04-24T00:50:11;18.17;;;4.25;;
23990;SDS011;12205;50.600;4.608;2023-04-24T00:52:41;15.50;;;3.90;;
23990;SDS011;12205;50.600;4.608;2023-04-24T00:55:08;15.95;;;4.15;;
23990;SDS011;12205;50.600;4.608;2023-04-24T00:57:35;18.05;;;4.38;;
23990;SDS011;12205;50.600;4.608;2023-04-24T01:00:03;14.73;;;4.15;;
23990;SDS011;12205;50.600;4.608;2023-04-24T01:02:34;21.63;;;4.88;;
23990;SDS011;12205;50.600;4.608;2023-04-24T01:05:01;11.23;;;3.00;;
23990;SDS011;12205;50.600;4.608;2023-04-24T01:07:28;16.60;;;4.32;;
23990;SDS011;12205;50.600;4.608;2023-04-24T01:09:55;13.20;;;3.70;;
23990;SDS011;12205;50.600;4.608;2023-04-24T01:12:24;13.48;;;4.13;;
23990;SDS011;12205;50.600;4.608;2023-04-24T01:14:51;13.75;;;4.10;;
23990;SDS011;12205;50.600;4.608;2023-04-24T01:17:18;21.42;;;4.43;;
23990;SDS011;12205;50.600;4.608;2023-04-24T01:19:47;18.45;;;4.68;;
23990;SDS011;12205;50.600;4.608;2023-04-24T01:22:16;9.80;;;3.10;;
23990;SDS011;12205;50.600;4.608;2023-04-24T01:24:43;13.57;;;3.83;;
23990;SDS011;12205;50.600;4.608;2023-04-24T01:27:11;17.95;;;4.65;;
23990;SDS011;12205;50.600;4.608;2023-04-24T01:29:38;13.40;;;4.22;;
23990;SDS011;12205;50.600;4.608;2023-04-24T01:32:05;20.33;;;4.82;;
23990;SDS011;12205;50.600;4.608;2023-04-24T01:34:32;23.48;;;5.15;;
23990;SDS011;12205;50.600;4.608;2023-04-24T01:37:00;12.00;;;4.35;;
23990;SDS011;12205;50.600;4.608;2023-04-24T01:39:28;16.77;;;4.65;;
23990;SDS011;12205;50.600;4.608;2023-04-24T01:41:56;17.48;;;5.32;;
23990;SDS011;12205;50.600;4.608;2023-04-24T01:44:23;19.95;;;5.43;;
23990;SDS011;12205;50.600;4.608;2023-04-24T01:46:50;13.75;;;4.85;;
23990;SDS011;12205;50.600;4.608;2023-04-24T01:49:19;15.70;;;4.82;;
23990;SDS011;12205;50.600;4.608;2023-04-24T01:51:46;16.92;;;5.25;;
23990;SDS011;12205;50.600;4.608;2023-04-24T01:54:13;20.95;;;5.00;;
23990;SDS011;12205;50.600;4.608;2023-04-24T01:56:42;12.57;;;4.55;;
23990;SDS011;12205;50.600;4.608;2023-04-24T01:59:09;17.10;;;5.30;;
23990;SDS011;12205;50.600;4.608;2023-04-24T02:01:37;12.43;;;4.22;;
23990;SDS011;12205;50.600;4.608;2023-04-24T02:04:04;15.23;;;5.05;;
23990;SDS011;12205;50.600;4.608;2023-04-24T02:06:34;17.92;;;4.32;;
23990;SDS011;12205;50.600;4.608;2023-04-24T02:09:01;13.90;;;4.30;;
23990;SDS011;12205;50.600;4.608;2023-04-24T02:11:29;14.32;;;4.50;;
23990;SDS011;12205;50.600;4.608;2023-04-24T02:13:58;16.15;;;4.85;;
23990;SDS011;12205;50.600;4.608;2023-04-24T02:16:25;15.57;;;4.85;;
23990;SDS011;12205;50.600;4.608;2023-04-24T02:18:51;16.13;;;4.63;;
23990;SDS011;12205;50.600;4.608;2023-04-24T02:21:18;13.80;;;3.92;;
23990;SDS011;12205;50.600;4.608;2023-04-24T02:23:45;14.18;;;4.05;;
23990;SDS011;12205;50.600;4.608;2023-04-24T02:26:12;14.63;;;4.80;;
23990;SDS011;12205;50.600;4.608;2023-04-24T02:28:40;17.60;;;4.55;;
23990;SDS011;12205;50.600;4.608;2023-04-24T02:31:08;16.75;;;4.30;;
23990;SDS011;12205;50.600;4.608;2023-04-24T02:33:35;17.13;;;4.82;;
23990;SDS011;12205;50.600;4.608;2023-04-24T02:36:02;19.70;;;4.45;;
23990;SDS011;12205;50.600;4.608;2023-04-24T02:38:29;18.27;;;4.70;;
23990;SDS011;12205;50.600;4.608;2023-04-24T02:40:56;16.40;;;4.32;;
23990;SDS011;12205;50.600;4.608;2023-04-24T02:43:25;14.50;;;4.07;;
23990;SDS011;12205;50.600;4.608;2023-04-24T02:45:52;19.85;;;4.80;;
23990;SDS011;12205;50.600;4.608;2023-04-24T02:48:20;12.18;;;4.10;;
23990;SDS011;12205;50.600;4.608;2023-04-24T02:50:47;20.08;;;5.05;;
23990;SDS011;12205;50.600;4.608;2023-04-24T02:53:14;17.48;;;4.43;;
23990;SDS011;12205;50.600;4.608;2023-04-24T02:55:41;14.65;;;4.50;;
23990;SDS011;12205;50.600;4.608;2023-04-24T02:58:08;10.77;;;3.70;;
23990;SDS011;12205;50.600;4.608;2023-04-24T03:00:35;16.58;;;4.57;;
23990;SDS011;12205;50.600;4.608;2023-04-24T03:03:02;15.23;;;3.90;;
23990;SDS011;12205;50.600;4.608;2023-04-24T03:05:31;9.18;;;3.63;;
23990;SDS011;12205;50.600;4.608;2023-04-24T03:07:59;13.68;;;3.67;;
23990;SDS011;12205;50.600;4.608;2023-04-24T03:10:25;14.45;;;4.15;;
23990;SDS011;12205;50.600;4.608;2023-04-24T03:12:52;9.30;;;3.40;;
23990;SDS011;12205;50.600;4.608;2023-04-24T03:15:20;14.88;;;4.00;;
23990;SDS011;12205;50.600;4.608;2023-04-24T03:17:47;10.50;;;3.80;;
23990;SDS011;12205;50.600;4.608;2023-04-24T03:20:14;13.98;;;3.90;;
23990;SDS011;12205;50.600;4.608;2023-04-24T03:22:43;15.88;;;4.00;;
23990;SDS011;12205;50.600;4.608;2023-04-24T03:25:10;15.82;;;4.10;;
23990;SDS011;12205;50.600;4.608;2023-04-24T03:27:37;10.85;;;3.42;;
23990;SDS011;12205;50.600;4.608;2023-04-24T03:30:14;13.48;;;3.25;;
23990;SDS011;12205;50.600;4.608;2023-04-24T03:32:48;14.48;;;3.97;;
23990;SDS011;12205;50.600;4.608;2023-04-24T03:35:20;13.38;;;3.70;;
23990;SDS011;12205;50.600;4.608;2023-04-24T03:37:49;16.83;;;4.43;;
23990;SDS011;12205;50.600;4.608;2023-04-24T03:40:35;14.10;;;4.00;;
23990;SDS011;12205;50.600;4.608;2023-04-24T03:43:07;9.50;;;3.03;;
23990;SDS011;12205;50.600;4.608;2023-04-24T03:45:35;10.18;;;3.40;;
23990;SDS011;12205;50.600;4.608;2023-04-24T03:48:02;13.38;;;3.45;;
23990;SDS011;12205;50.600;4.608;2023-04-24T03:50:30;11.77;;;3.65;;
23990;SDS011;12205;50.600;4.608;2023-04-24T03:53:00;14.02;;;3.70;;
23990;SDS011;12205;50.600;4.608;2023-04-24T03:55:35;10.73;;;3.60;;
23990;SDS011;12205;50.600;4.608;2023-04-24T03:58:02;11.52;;;3.58;;
23990;SDS011;12205;50.600;4.608;2023-04-24T04:00:30;12.70;;;3.67;;
23990;SDS011;12205;50.600;4.608;2023-04-24T04:03:18;16.58;;;4.20;;
23990;SDS011;12205;50.600;4.608;2023-04-24T04:05:45;16.80;;;4.72;;
23990;SDS011;12205;50.600;4.608;2023-04-24T04:08:13;13.77;;;4.13;;
23990;SDS011;12205;50.600;4.608;2023-04-24T04:10:40;10.80;;;3.80;;
23990;SDS011;12205;50.600;4.608;2023-04-24T04:13:07;14.30;;;4.10;;
23990;SDS011;12205;50.600;4.608;2023-04-24T04:15:35;13.02;;;3.53;;
23990;SDS011;12205;50.600;4.608;2023-04-24T04:18:02;11.70;;;3.63;;
23990;SDS011;12205;50.600;4.608;2023-04-24T04:20:29;11.55;;;4.30;;
23990;SDS011;12205;50.600;4.608;2023-04-24T04:22:57;15.00;;;4.25;;
23990;SDS011;12205;50.600;4.608;2023-04-24T04:25:36;13.35;;;4.25;;
23990;SDS011;12205;50.600;4.608;2023-04-24T04:28:04;12.85;;;4.70;;
23990;SDS011;12205;50.600;4.608;2023-04-24T04:30:31;10.77;;;3.97;;
23990;SDS011;12205;50.600;4.608;2023-04-24T04:33:02;13.50;;;4.03;;
23990;SDS011;12205;50.600;4.608;2023-04-24T04:35:30;16.10;;;4.65;;
23990;SDS011;12205;50.600;4.608;2023-04-24T04:37:58;17.92;;;4.85;;
23990;SDS011;12205;50.600;4.608;2023-04-24T04:40:46;14.77;;;4.30;;
23990;SDS011;12205;50.600;4.608;2023-04-24T04:43:17;11.57;;;3.92;;
23990;SDS011;12205;50.600;4.608;2023-04-24T04:45:52;12.82;;;4.22;;
23990;SDS011;12205;50.600;4.608;2023-04-24T04:48:34;9.45;;;3.70;;
23990;SDS011;12205;50.600;4.608;2023-04-24T04:51:04;15.48;;;4.90;;
23990;SDS011;12205;50.600;4.608;2023-04-24T04:53:31;9.65;;;3.67;;
23990;SDS011;12205;50.600;4.608;2023-04-24T04:55:59;14.13;;;4.00;;
23990;SDS011;12205;50.600;4.608;2023-04-24T04:58:33;10.00;;;3.58;;
23990;SDS011;12205;50.600;4.608;2023-04-24T05:01:01;10.32;;;3.20;;
23990;SDS011;12205;50.600;4.608;2023-04-24T05:03:36;9.13;;;3.58;;
23990;SDS011;12205;50.600;4.608;2023-04-24T05:06:07;8.23;;;2.97;;
23990;SDS011;12205;50.600;4.608;2023-04-24T05:08:37;13.80;;;3.78;;
23990;SDS011;12205;50.600;4.608;2023-04-24T05:11:08;9.88;;;4.07;;
23990;SDS011;12205;50.600;4.608;2023-04-24T05:13:37;11.10;;;3.47;;
23990;SDS011;12205;50.600;4.608;2023-04-24T05:16:07;6.93;;;2.58;;
23990;SDS011;12205;50.600;4.608;2023-04-24T05:18:35;6.53;;;2.60;;
23990;SDS011;12205;50.600;4.608;2023-04-24T05:21:04;7.13;;;2.58;;
23990;SDS011;12205;50.600;4.608;2023-04-24T05:23:31;9.57;;;3.17;;
23990;SDS011;12205;50.600;4.608;2023-04-24T05:25:59;9.82;;;3.13;;
23990;SDS011;12205;50.600;4.608;2023-04-24T05:28:28;8.57;;;2.85;;
23990;SDS011;12205;50.600;4.608;2023-04-24T05:31:08;8.65;;;2.95;;
23990;SDS011;12205;50.600;4.608;2023-04-24T05:33:35;10.57;;;3.30;;
23990;SDS011;12205;50.600;4.608;2023-04-24T05:36:03;9.52;;;3.58;;
23990;SDS011;12205;50.600;4.608;2023-04-24T05:38:30;12.18;;;4.22;;
23990;SDS011;12205;50.600;4.608;2023-04-24T05:40:59;9.93;;;4.05;;
23990;SDS011;12205;50.600;4.608;2023-04-24T05:43:27;16.02;;;4.07;;
23990;SDS011;12205;50.600;4.608;2023-04-24T05:45:54;13.18;;;4.75;;
23990;SDS011;12205;50.600;4.608;2023-04-24T05:48:21;14.07;;;4.13;;
23990;SDS011;12205;50.600;4.608;2023-04-24T05:50:48;17.50;;;4.93;;
23990;SDS011;12205;50.600;4.608;2023-04-24T05:53:16;16.15;;;4.55;;
23990;SDS011;12205;50.600;4.608;2023-04-24T05:55:43;17.13;;;4.70;;
23990;SDS011;12205;50.600;4.608;2023-04-24T05:58:10;12.07;;;3.88;;
23990;SDS011;12205;50.600;4.608;2023-04-24T06:00:39;10.52;;;3.95;;
23990;SDS011;12205;50.600;4.608;2023-04-24T06:03:07;13.23;;;4.05;;
23990;SDS011;12205;50.600;4.608;2023-04-24T06:05:35;14.73;;;4.00;;
23990;SDS011;12205;50.600;4.608;2023-04-24T06:08:02;15.32;;;4.35;;
23990;SDS011;12205;50.600;4.608;2023-04-24T06:10:35;13.18;;;3.92;;
23990;SDS011;12205;50.600;4.608;2023-04-24T06:13:03;14.70;;;4.40;;
23990;SDS011;12205;50.600;4.608;2023-04-24T06:15:33;16.52;;;4.88;;
23990;SDS011;12205;50.600;4.608;2023-04-24T06:18:16;13.05;;;3.88;;
23990;SDS011;12205;50.600;4.608;2023-04-24T06:20:44;20.08;;;4.85;;
23990;SDS011;12205;50.600;4.608;2023-04-24T06:23:12;12.88;;;4.43;;
23990;SDS011;12205;50.600;4.608;2023-04-24T06:25:39;15.30;;;4.20;;
23990;SDS011;12205;50.600;4.608;2023-04-24T06:28:06;11.60;;;4.03;;
23990;SDS011;12205;50.600;4.608;2023-04-24T06:30:33;15.65;;;4.57;;
23990;SDS011;12205;50.600;4.608;2023-04-24T06:33:00;14.77;;;4.70;;
23990;SDS011;12205;50.600;4.608;2023-04-24T06:35:29;15.32;;;4.82;;
23990;SDS011;12205;50.600;4.608;2023-04-24T06:37:56;16.08;;;4.85;;
23990;SDS011;12205;50.600;4.608;2023-04-24T06:40:23;17.17;;;5.15;;
23990;SDS011;12205;50.600;4.608;2023-04-24T06:42:50;13.93;;;5.00;;
23990;SDS011;12205;50.600;4.608;2023-04-24T06:45:18;14.45;;;4.88;;
23990;SDS011;12205;50.600;4.608;2023-04-24T06:47:45;17.15;;;5.53;;
23990;SDS011;12205;50.600;4.608;2023-04-24T06:50:12;15.68;;;5.00;;
23990;SDS011;12205;50.600;4.608;2023-04-24T06:52:40;19.20;;;5.78;;
23990;SDS011;12205;50.600;4.608;2023-04-24T06:55:07;15.40;;;5.80;;
23990;SDS011;12205;50.600;4.608;2023-04-24T06:57:36;20.02;;;6.75;;
23990;SDS011;12205;50.600;4.608;2023-04-24T07:00:03;21.77;;;6.20;;
23990;SDS011;12205;50.600;4.608;2023-04-24T07:02:32;17.42;;;5.97;;
23990;SDS011;12205;50.600;4.608;2023-04-24T07:04:59;19.48;;;6.65;;
23990;SDS011;12205;50.600;4.608;2023-04-24T07:07:26;24.33;;;6.18;;
23990;SDS011;12205;50.600;4.608;2023-04-24T07:09:54;22.65;;;6.60;;
23990;SDS011;12205;50.600;4.608;2023-04-24T07:12:21;18.95;;;6.38;;
23990;SDS011;12205;50.600;4.608;2023-04-24T07:14:48;19.73;;;6.10;;
23990;SDS011;12205;50.600;4.608;2023-04-24T07:17:16;19.98;;;6.63;;
23990;SDS011;12205;50.600;4.608;2023-04-24T07:19:43;23.00;;;6.63;;
23990;SDS011;12205;50.600;4.608;2023-04-24T07:22:10;19.77;;;5.63;;
23990;SDS011;12205;50.600;4.608;2023-04-24T07:24:41;17.08;;;5.60;;
23990;SDS011;12205;50.600;4.608;2023-04-24T07:27:10;26.38;;;6.28;;
23990;SDS011;12205;50.600;4.608;2023-04-24T07:29:37;19.15;;;5.97;;
23990;SDS011;12205;50.600;4.608;2023-04-24T07:32:05;21.67;;;6.18;;
23990;SDS011;12205;50.600;4.608;2023-04-24T07:34:32;20.83;;;5.72;;
23990;SDS011;12205;50.600;4.608;2023-04-24T07:36:59;18.70;;;5.80;;
23990;SDS011;12205;50.600;4.608;2023-04-24T07:39:26;19.52;;;6.30;;
23990;SDS011;12205;50.600;4.608;2023-04-24T07:41:54;18.00;;;6.28;;
23990;SDS011;12205;50.600;4.608;2023-04-24T07:44:22;19.63;;;6.20;;
23990;SDS011;12205;50.600;4.608;2023-04-24T07:46:49;24.15;;;6.30;;
23990;SDS011;12205;50.600;4.608;2023-04-24T07:49:16;13.13;;;5.05;;
23990;SDS011;12205;50.600;4.608;2023-04-24T07:51:44;18.85;;;6.38;;
23990;SDS011;12205;50.600;4.608;2023-04-24T07:54:11;17.85;;;5.75;;
23990;SDS011;12205;50.600;4.608;2023-04-24T07:56:38;16.10;;;5.75;;
23990;SDS011;12205;50.600;4.608;2023-04-24T07:59:08;17.88;;;5.25;;
23990;SDS011;12205;50.600;4.608;2023-04-24T08:01:36;18.02;;;5.70;;
23990;SDS011;12205;50.600;4.608;2023-04-24T08:04:03;16.15;;;4.95;;
23990;SDS011;12205;50.600;4.608;2023-04-24T08:06:31;17.60;;;4.85;;
23990;SDS011;12205;50.600;4.608;2023-04-24T08:08:58;21.25;;;5.28;;
23990;SDS011;12205;50.600;4.608;2023-04-24T08:11:26;22.33;;;5.57;;
23990;SDS011;12205;50.600;4.608;2023-04-24T08:13:53;20.55;;;5.75;;
23990;SDS011;12205;50.600;4.608;2023-04-24T08:16:20;15.27;;;5.30;;
23990;SDS011;12205;50.600;4.608;2023-04-24T08:18:50;16.08;;;5.40;;
23990;SDS011;12205;50.600;4.608;2023-04-24T08:21:17;18.23;;;5.55;;
23990;SDS011;12205;50.600;4.608;2023-04-24T08:23:45;18.08;;;5.15;;
23990;SDS011;12205;50.600;4.608;2023-04-24T08:26:12;17.27;;;5.03;;
23990;SDS011;12205;50.600;4.608;2023-04-24T08:28:39;16.17;;;5.07;;
23990;SDS011;12205;50.600;4.608;2023-04-24T08:31:06;10.93;;;4.28;;
23990;SDS011;12205;50.600;4.608;2023-04-24T08:33:33;16.05;;;4.15;;
23990;SDS011;12205;50.600;4.608;2023-04-24T08:36:02;17.77;;;5.22;;
23990;SDS011;12205;50.600;4.608;2023-04-24T08:38:29;17.58;;;5.03;;
23990;SDS011;12205;50.600;4.608;2023-04-24T08:40:58;21.15;;;5.00;;
23990;SDS011;12205;50.600;4.608;2023-04-24T08:43:26;17.30;;;4.70;;
23990;SDS011;12205;50.600;4.608;2023-04-24T08:45:55;17.67;;;4.53;;
23990;SDS011;12205;50.600;4.608;2023-04-24T08:48:24;18.33;;;4.93;;
23990;SDS011;12205;50.600;4.608;2023-04-24T08:50:52;16.55;;;4.70;;
23990;SDS011;12205;50.600;4.608;2023-04-24T08:53:21;16.08;;;4.20;;
23990;SDS011;12205;50.600;4.608;2023-04-24T08:55:50;13.13;;;3.50;;
23990;SDS011;12205;50.600;4.608;2023-04-24T08:58:20;10.30;;;3.22;;
23990;SDS011;12205;50.600;4.608;2023-04-24T09:00:47;11.05;;;3.47;;
23990;SDS011;12205;50.600;4.608;2023-04-24T09:03:15;16.05;;;3.70;;
23990;SDS011;12205;50.600;4.608;2023-04-24T09:05:43;18.17;;;4.22;;
23990;SDS011;12205;50.600;4.608;2023-04-24T09:08:12;14.60;;;2.92;;
23990;SDS011;12205;50.600;4.608;2023-04-24T09:10:41;13.98;;;3.00;;
23990;SDS011;12205;50.600;4.608;2023-04-24T09:13:08;11.07;;;2.85;;
23990;SDS011;12205;50.600;4.608;2023-04-24T09:15:35;12.07;;;2.63;;
23990;SDS011;12205;50.600;4.608;2023-04-24T09:18:03;10.82;;;2.70;;
23990;SDS011;12205;50.600;4.608;2023-04-24T09:20:30;11.73;;;2.90;;
23990;SDS011;12205;50.600;4.608;2023-04-24T09:22:58;10.10;;;2.10;;
23990;SDS011;12205;50.600;4.608;2023-04-24T09:25:25;10.18;;;2.20;;
23990;SDS011;12205;50.600;4.608;2023-04-24T09:28:01;10.23;;;2.72;;
23990;SDS011;12205;50.600;4.608;2023-04-24T09:30:29;12.48;;;3.13;;
23990;SDS011;12205;50.600;4.608;2023-04-24T09:33:09;12.32;;;2.50;;
23990;SDS011;12205;50.600;4.608;2023-04-24T09:35:39;10.25;;;2.53;;
23990;SDS011;12205;50.600;4.608;2023-04-24T09:38:08;5.90;;;2.13;;
23990;SDS011;12205;50.600;4.608;2023-04-24T09:40:34;7.65;;;2.40;;
23990;SDS011;12205;50.600;4.608;2023-04-24T09:43:03;9.32;;;2.33;;
23990;SDS011;12205;50.600;4.608;2023-04-24T09:45:35;10.52;;;2.08;;
23990;SDS011;12205;50.600;4.608;2023-04-24T09:48:02;8.27;;;2.30;;
23990;SDS011;12205;50.600;4.608;2023-04-24T09:50:30;14.85;;;2.72;;
23990;SDS011;12205;50.600;4.608;2023-04-24T09:53:01;9.93;;;2.08;;
23990;SDS011;12205;50.600;4.608;2023-04-24T09:55:29;18.63;;;3.75;;
23990;SDS011;12205;50.600;4.608;2023-04-24T09:57:57;6.75;;;1.83;;
23990;SDS011;12205;50.600;4.608;2023-04-24T10:00:26;6.60;;;1.70;;
23990;SDS011;12205;50.600;4.608;2023-04-24T10:02:56;9.48;;;1.77;;
23990;SDS011;12205;50.600;4.608;2023-04-24T10:05:24;9.13;;;2.00;;
23990;SDS011;12205;50.600;4.608;2023-04-24T10:07:56;7.53;;;1.70;;
23990;SDS011;12205;50.600;4.608;2023-04-24T10:10:23;9.60;;;1.88;;
23990;SDS011;12205;50.600;4.608;2023-04-24T10:12:51;8.27;;;1.67;;
23990;SDS011;12205;50.600;4.608;2023-04-24T10:15:18;8.10;;;1.38;;
23990;SDS011;12205;50.600;4.608;2023-04-24T10:17:49;12.75;;;2.10;;
23990;SDS011;12205;50.600;4.608;2023-04-24T10:22:49;7.63;;;1.70;;
23990;SDS011;12205;50.600;4.608;2023-04-24T10:25:18;8.73;;;1.75;;
23990;SDS011;12205;50.600;4.608;2023-04-24T10:27:47;10.13;;;2.28;;
23990;SDS011;12205;50.600;4.608;2023-04-24T10:30:15;10.65;;;2.80;;
23990;SDS011;12205;50.600;4.608;2023-04-24T10:32:42;10.20;;;3.05;;
23990;SDS011;12205;50.600;4.608;2023-04-24T10:35:12;13.25;;;3.30;;
23990;SDS011;12205;50.600;4.608;2023-04-24T10:37:40;12.35;;;3.22;;
23990;SDS011;12205;50.600;4.608;2023-04-24T10:40:11;11.73;;;2.57;;
23990;SDS011;12205;50.600;4.608;2023-04-24T10:42:42;10.48;;;2.40;;
23990;SDS011;12205;50.600;4.608;2023-04-24T10:45:16;8.25;;;2.28;;
23990;SDS011;12205;50.600;4.608;2023-04-24T10:47:50;9.43;;;2.53;;
23990;SDS011;12205;50.600;4.608;2023-04-24T10:50:20;7.30;;;2.55;;
23990;SDS011;12205;50.600;4.608;2023-04-24T10:52:47;11.60;;;2.80;;
23990;SDS011;12205;50.600;4.608;2023-04-24T10:55:29;12.13;;;3.27;;
23990;SDS011;12205;50.600;4.608;2023-04-24T10:58:07;10.40;;;3.08;;
23990;SDS011;12205;50.600;4.608;2023-04-24T11:00:35;10.75;;;3.00;;
23990;SDS011;12205;50.600;4.608;2023-04-24T11:03:04;13.23;;;3.60;;
23990;SDS011;12205;50.600;4.608;2023-04-24T11:05:52;12.20;;;3.72;;
23990;SDS011;12205;50.600;4.608;2023-04-24T11:08:26;18.55;;;4.55;;
23990;SDS011;12205;50.600;4.608;2023-04-24T11:10:56;11.38;;;3.78;;
23990;SDS011;12205;50.600;4.608;2023-04-24T11:13:25;13.77;;;4.20;;
23990;SDS011;12205;50.600;4.608;2023-04-24T11:16:12;16.73;;;4.55;;
23990;SDS011;12205;50.600;4.608;2023-04-24T11:18:41;14.95;;;4.70;;
23990;SDS011;12205;50.600;4.608;2023-04-24T11:21:12;10.17;;;3.90;;
23990;SDS011;12205;50.600;4.608;2023-04-24T11:26:09;12.65;;;4.53;;
23990;SDS011;12205;50.600;4.608;2023-04-24T11:28:37;12.18;;;4.25;;
23990;SDS011;12205;50.600;4.608;2023-04-24T11:34:09;15.23;;;4.40;;
23990;SDS011;12205;50.600;4.608;2023-04-24T11:36:38;11.68;;;4.32;;
23990;SDS011;12205;50.600;4.608;2023-04-24T11:39:06;10.10;;;3.83;;
23990;SDS011;12205;50.600;4.608;2023-04-24T11:41:33;9.77;;;3.83;;
23990;SDS011;12205;50.600;4.608;2023-04-24T11:44:00;11.82;;;3.95;;
23990;SDS011;12205;50.600;4.608;2023-04-24T11:46:28;13.90;;;3.90;;
23990;SDS011;12205;50.600;4.608;2023-04-24T11:48:57;10.55;;;3.70;;
23990;SDS011;12205;50.600;4.608;2023-04-24T11:51:25;11.40;;;3.45;;
23990;SDS011;12205;50.600;4.608;2023-04-24T11:53:54;12.65;;;3.97;;
23990;SDS011;12205;50.600;4.608;2023-04-24T11:56:22;14.98;;;3.80;;
23990;SDS011;12205;50.600;4.608;2023-04-24T11:58:51;8.75;;;3.10;;
23990;SDS011;12205;50.600;4.608;2023-04-24T12:01:19;10.35;;;3.60;;
23990;SDS011;12205;50.600;4.608;2023-04-24T12:03:49;9.77;;;3.25;;
23990;SDS011;12205;50.600;4.608;2023-04-24T12:06:17;8.80;;;3.30;;
23990;SDS011;12205;50.600;4.608;2023-04-24T12:08:48;11.75;;;3.70;;
23990;SDS011;12205;50.600;4.608;2023-04-24T12:11:16;11.68;;;3.35;;
23990;SDS011;12205;50.600;4.608;2023-04-24T12:13:46;9.57;;;3.20;;
23990;SDS011;12205;50.600;4.608;2023-04-24T12:16:13;11.82;;;2.83;;
23990;SDS011;12205;50.600;4.608;2023-04-24T12:18:43;10.88;;;2.80;;
23990;SDS011;12205;50.600;4.608;2023-04-24T12:21:14;11.10;;;2.90;;
23990;SDS011;12205;50.600;4.608;2023-04-24T12:23:42;9.65;;;2.80;;
23990;SDS011;12205;50.600;4.608;2023-04-24T12:26:09;6.93;;;2.97;;
23990;SDS011;12205;50.600;4.608;2023-04-24T12:28:38;8.77;;;2.75;;
23990;SDS011;12205;50.600;4.608;2023-04-24T12:31:06;6.80;;;2.53;;
23990;SDS011;12205;50.600;4.608;2023-04-24T12:33:34;7.70;;;2.80;;
23990;SDS011;12205;50.600;4.608;2023-04-24T12:36:01;19.98;;;3.55;;
23990;SDS011;12205;50.600;4.608;2023-04-24T12:38:29;8.93;;;3.15;;
23990;SDS011;12205;50.600;4.608;2023-04-24T12:41:02;14.55;;;3.70;;
23990;SDS011;12205;50.600;4.608;2023-04-24T12:43:30;7.15;;;2.90;;
23990;SDS011;12205;50.600;4.608;2023-04-24T12:45:58;7.75;;;2.83;;
23990;SDS011;12205;50.600;4.608;2023-04-24T12:48:26;14.15;;;3.80;;
23990;SDS011;12205;50.600;4.608;2023-04-24T12:50:53;11.85;;;3.45;;
23990;SDS011;12205;50.600;4.608;2023-04-24T12:53:20;11.45;;;3.67;;
23990;SDS011;12205;50.600;4.608;2023-04-24T12:55:47;16.17;;;3.80;;
23990;SDS011;12205;50.600;4.608;2023-04-24T12:58:18;12.95;;;3.75;;
23990;SDS011;12205;50.600;4.608;2023-04-24T13:00:45;11.27;;;3.30;;
23990;SDS011;12205;50.600;4.608;2023-04-24T13:03:14;10.90;;;3.40;;
23990;SDS011;12205;50.600;4.608;2023-04-24T13:05:41;9.88;;;3.67;;
23990;SDS011;12205;50.600;4.608;2023-04-24T13:08:08;13.18;;;3.75;;
23990;SDS011;12205;50.600;4.608;2023-04-24T13:10:36;8.20;;;3.22;;
23990;SDS011;12205;50.600;4.608;2023-04-24T13:13:03;9.27;;;3.13;;
23990;SDS011;12205;50.600;4.608;2023-04-24T13:15:30;9.60;;;3.03;;
23990;SDS011;12205;50.600;4.608;2023-04-24T13:17:56;7.75;;;3.50;;
23990;SDS011;12205;50.600;4.608;2023-04-24T13:20:25;9.93;;;3.17;;
23990;SDS011;12205;50.600;4.608;2023-04-24T13:22:52;8.40;;;3.38;;
23990;SDS011;12205;50.600;4.608;2023-04-24T13:25:19;12.20;;;3.90;;
23990;SDS011;12205;50.600;4.608;2023-04-24T13:27:48;9.73;;;3.28;;
23990;SDS011;12205;50.600;4.608;2023-04-24T13:30:16;10.02;;;3.90;;
23990;SDS011;12205;50.600;4.608;2023-04-24T13:32:42;12.60;;;3.55;;
23990;SDS011;12205;50.600;4.608;2023-04-24T13:35:10;13.48;;;4.38;;
23990;SDS011;12205;50.600;4.608;2023-04-24T13:37:38;11.27;;;3.85;;
23990;SDS011;12205;50.600;4.608;2023-04-24T13:40:05;12.63;;;3.50;;
23990;SDS011;12205;50.600;4.608;2023-04-24T13:42:33;10.52;;;3.30;;
23990;SDS011;12205;50.600;4.608;2023-04-24T13:45:00;11.88;;;3.80;;
23990;SDS011;12205;50.600;4.608;2023-04-24T13:47:27;13.00;;;3.97;;
23990;SDS011;12205;50.600;4.608;2023-04-24T13:49:54;15.02;;;4.82;;
23990;SDS011;12205;50.600;4.608;2023-04-24T13:52:21;15.93;;;5.40;;
23990;SDS011;12205;50.600;4.608;2023-04-24T13:54:49;14.02;;;4.82;;
23990;SDS011;12205;50.600;4.608;2023-04-24T13:57:16;13.15;;;4.78;;
23990;SDS011;12205;50.600;4.608;2023-04-24T13:59:43;19.25;;;5.82;;
23990;SDS011;12205;50.600;4.608;2023-04-24T14:02:11;17.60;;;5.82;;
23990;SDS011;12205;50.600;4.608;2023-04-24T14:04:38;16.42;;;5.25;;
23990;SDS011;12205;50.600;4.608;2023-04-24T14:07:05;16.67;;;6.10;;
23990;SDS011;12205;50.600;4.608;2023-04-24T14:09:33;13.27;;;4.88;;
23990;SDS011;12205;50.600;4.608;2023-04-24T14:12:01;12.45;;;4.65;;
23990;SDS011;12205;50.600;4.608;2023-04-24T14:14:28;11.15;;;4.40;;
23990;SDS011;12205;50.600;4.608;2023-04-24T14:16:56;17.40;;;5.72;;
23990;SDS011;12205;50.600;4.608;2023-04-24T14:19:23;17.08;;;5.82;;
23990;SDS011;12205;50.600;4.608;2023-04-24T14:21:50;14.25;;;5.05;;
23990;SDS011;12205;50.600;4.608;2023-04-24T14:24:17;13.30;;;5.05;;
23990;SDS011;12205;50.600;4.608;2023-04-24T14:26:44;16.67;;;5.00;;
23990;SDS011;12205;50.600;4.608;2023-04-24T14:29:12;17.33;;;5.50;;
23990;SDS011;12205;50.600;4.608;2023-04-24T14:31:40;14.15;;;4.82;;
23990;SDS011;12205;50.600;4.608;2023-04-24T14:34:07;16.70;;;5.05;;
23990;SDS011;12205;50.600;4.608;2023-04-24T14:36:34;13.88;;;4.97;;
23990;SDS011;12205;50.600;4.608;2023-04-24T14:39:01;13.23;;;4.43;;
23990;SDS011;12205;50.600;4.608;2023-04-24T14:41:31;16.00;;;4.60;;
23990;SDS011;12205;50.600;4.608;2023-04-24T14:44:00;12.52;;;4.05;;
23990;SDS011;12205;50.600;4.608;2023-04-24T14:46:29;11.73;;;4.20;;
23990;SDS011;12205;50.600;4.608;2023-04-24T14:48:56;13.50;;;4.45;;
23990;SDS011;12205;50.600;4.608;2023-04-24T14:51:23;10.23;;;3.97;;